createdAt,value
2019-01-23T00:09:07.021Z,24.48
2019-01-23T00:09:07.053Z,24.85
2019-01-23T00:09:07.057Z,24.85
2019-01-23T00:09:07.083Z,24.85
2019-01-23T00:15:02.112Z,25.74
2019-01-23T00:20:57.037Z,28.3
2019-01-23T00:26:52.025Z,104.83
2019-01-23T00:32:47.024Z,37.57
2019-01-23T00:38:42.011Z,23.04
2019-01-23T00:44:37.004Z,26.37
2019-01-23T00:50:32.009Z,26.87
2019-01-23T00:56:27.020Z,27.43
2019-01-23T01:02:22.010Z,27.1
2019-01-23T01:08:17.069Z,37.58
2019-01-23T01:14:12.038Z,29.15
2019-01-23T01:20:07.036Z,25.13
2019-01-23T01:26:02.020Z,24.11
2019-01-23T01:31:57.017Z,32
2019-01-23T01:37:52.111Z,28.32
2019-01-23T01:43:47.046Z,22.64
2019-01-23T01:49:42.043Z,29.78
2019-01-23T01:55:37.010Z,29.49
2019-01-23T02:01:32.012Z,29.44
2019-01-23T02:07:27.063Z,28.11
2019-01-23T02:13:22.085Z,26.43
2019-01-23T02:19:17.054Z,26.4
2019-01-23T02:25:12.025Z,31.16
2019-01-23T02:31:07.020Z,27.99
2019-01-23T02:37:02.075Z,27.92
2019-01-23T02:42:57.055Z,25.77
2019-01-23T02:48:52.035Z,24.5
2019-01-23T03:12:32.050Z,26.75
2019-01-23T03:12:32.198Z,29.23
2019-01-23T03:12:32.210Z,29.23
2019-01-23T03:12:32.270Z,29.23
2019-01-23T03:18:27.049Z,26.17
2019-01-23T03:24:22.036Z,28.76
2019-01-23T03:30:17.051Z,25.91
2019-01-23T03:36:12.092Z,32.9
2019-01-23T03:42:07.047Z,26.72
2019-01-23T03:48:02.043Z,31.15
2019-01-23T03:53:57.054Z,30.96
2019-01-23T03:59:52.045Z,27.01
2019-01-23T04:05:47.090Z,31.4
2019-01-23T04:11:42.094Z,34.29
2019-01-23T04:17:37.110Z,30.11
2019-01-23T04:23:32.060Z,31.8
2019-01-23T04:29:27.067Z,28.17
2019-01-23T04:35:22.073Z,32.8
2019-01-23T04:41:17.057Z,27.05
2019-01-23T04:47:12.054Z,35.92
2019-01-23T04:53:07.091Z,35.09
2019-01-23T04:59:02.064Z,36.46
2019-01-23T05:04:57.102Z,35.17
2019-01-23T05:10:52.080Z,29.77
2019-01-23T05:16:47.208Z,30.68
2019-01-23T05:22:42.062Z,36.07
2019-01-23T05:28:37.061Z,37.25
2019-01-23T05:34:32.074Z,28.45
2019-01-23T05:40:27.147Z,39.23
2019-01-23T05:46:22.118Z,33.03
2019-01-23T06:10:02.104Z,39.75
2019-01-23T06:10:02.135Z,32.98
2019-01-23T06:10:02.163Z,32.98
2019-01-23T06:10:02.199Z,32.98
2019-01-23T06:15:57.100Z,35.8
2019-01-23T06:21:52.077Z,40.29
2019-01-23T06:27:47.071Z,32.21
2019-01-23T06:33:42.076Z,31.21
2019-01-23T06:39:37.064Z,31.29
2019-01-23T06:45:32.096Z,37.21
2019-01-23T06:51:27.090Z,34.07
2019-01-23T06:57:22.100Z,41.84
2019-01-23T07:03:17.074Z,30.71
2019-01-23T07:09:12.106Z,32.11
2019-01-23T07:15:07.094Z,36.1
2019-01-23T07:21:02.083Z,37.89
2019-01-23T07:26:57.095Z,35.85
2019-01-23T07:32:52.099Z,38.22
2019-01-23T07:38:47.108Z,37.28
2019-01-23T07:44:42.102Z,39.05
2019-01-23T07:50:37.168Z,35.7
2019-01-23T07:56:32.102Z,33.94
2019-01-23T08:02:27.086Z,43.03
2019-01-23T08:08:22.093Z,36.37
2019-01-23T08:14:17.146Z,42.44
2019-01-23T08:20:12.115Z,38.92
2019-01-23T08:26:07.108Z,37.24
2019-01-23T08:32:02.140Z,38.59
2019-01-23T08:37:57.122Z,40.66
2019-01-23T08:43:52.103Z,49.35
2019-01-23T08:49:47.121Z,47.33
2019-01-23T09:13:27.125Z,42.07
2019-01-23T09:13:27.202Z,171.77
2019-01-23T09:13:27.221Z,171.77
2019-01-23T09:13:27.270Z,171.77
2019-01-23T09:19:22.113Z,60.58
2019-01-23T09:25:17.098Z,49.21
2019-01-23T09:31:12.166Z,53.95
2019-01-23T09:37:07.207Z,51.12
2019-01-23T09:43:02.135Z,52
2019-01-23T09:48:57.141Z,46.64
2019-01-23T09:54:52.139Z,47.95
2019-01-23T10:00:47.216Z,50.83
2019-01-23T10:06:42.120Z,52.81
2019-01-23T10:12:37.133Z,43.63
2019-01-23T10:18:32.123Z,42.07
2019-01-23T10:24:27.142Z,50.82
2019-01-23T10:30:22.136Z,41.74
2019-01-23T10:36:17.135Z,45.32
2019-01-23T10:42:12.189Z,48.39
2019-01-23T10:48:07.195Z,59.37
2019-01-23T10:54:02.165Z,41.95
2019-01-23T10:59:57.162Z,46.62
2019-01-23T11:05:52.147Z,47.61
2019-01-23T11:11:47.150Z,49.06
2019-01-23T11:17:42.119Z,52.22
2019-01-23T11:23:37.177Z,53.04
2019-01-23T11:29:32.133Z,50.68
2019-01-23T11:35:27.158Z,57.65
2019-01-23T11:41:22.152Z,46.81
2019-01-23T11:47:17.153Z,62.24
2019-01-23T12:10:57.976Z,43.57
2019-01-23T12:10:57.976Z,43.57
2019-01-23T12:10:57.976Z,52.36
2019-01-23T12:10:57.976Z,43.57
2019-01-23T12:16:52.172Z,43.39
2019-01-23T12:22:47.191Z,45.21
2019-01-23T12:28:42.183Z,43.42
2019-01-23T12:34:37.184Z,49.83
2019-01-23T12:40:32.173Z,45.95
2019-01-23T12:46:27.178Z,39.5
2019-01-23T12:52:22.166Z,39.51
2019-01-23T12:58:17.194Z,47.13
2019-01-23T13:04:12.177Z,37
2019-01-23T13:10:07.174Z,36.1
2019-01-23T13:16:02.162Z,33.13
2019-01-23T13:21:57.194Z,43.31
2019-01-23T13:27:52.182Z,45.36
2019-01-23T13:33:47.181Z,37.88
2019-01-23T13:39:42.199Z,30.77
2019-01-23T13:45:37.177Z,59.7
2019-01-23T13:51:32.177Z,37.71
2019-01-23T13:57:27.206Z,32.55
2019-01-23T14:03:22.212Z,38.91
2019-01-23T14:09:17.224Z,42.78
2019-01-23T14:15:12.200Z,46.79
2019-01-23T14:21:07.185Z,37.45
2019-01-23T14:27:02.259Z,43.14
2019-01-23T14:32:57.213Z,44.42
2019-01-23T14:38:52.184Z,48.32
2019-01-23T14:44:47.191Z,39.51
2019-01-23T14:50:42.198Z,47.73
2019-01-23T15:14:22.238Z,43.83
2019-01-23T15:14:22.398Z,41.75
2019-01-23T15:14:22.415Z,41.75
2019-01-23T15:14:22.464Z,41.75
2019-01-23T15:20:17.204Z,38.89
2019-01-23T15:26:12.224Z,33.51
2019-01-23T15:32:07.224Z,49.4
2019-01-23T15:38:02.210Z,45.59
2019-01-23T15:43:57.219Z,44.47
2019-01-23T15:49:52.244Z,40.29
2019-01-23T15:55:47.248Z,49.46
2019-01-23T16:01:42.202Z,42.64
2019-01-23T16:07:37.208Z,46.93
2019-01-23T16:13:32.238Z,51.48
2019-01-23T16:19:27.221Z,47.9
2019-01-23T16:25:22.229Z,10.24
2019-01-23T16:31:17.210Z,5.61
2019-01-23T16:37:12.249Z,4.09
2019-01-23T16:43:07.223Z,4.97
2019-01-23T16:49:02.225Z,5.37
2019-01-23T16:54:57.219Z,6.98
2019-01-23T17:00:52.233Z,4.73
2019-01-23T17:06:47.254Z,6.1
2019-01-23T17:12:42.221Z,6.45
2019-01-23T17:18:37.262Z,23.45
2019-01-23T17:24:32.222Z,9.43
2019-01-23T17:30:27.278Z,11.03
2019-01-23T17:36:22.256Z,5.93
2019-01-23T17:42:17.269Z,6.3
2019-01-23T17:48:12.248Z,12.96
2019-01-23T18:11:52.259Z,7.54
2019-01-23T18:11:52.334Z,12.15
2019-01-23T18:11:52.355Z,12.15
2019-01-23T18:11:52.378Z,12.15
2019-01-23T18:17:47.242Z,5.83
2019-01-23T18:23:42.277Z,9.18
2019-01-23T18:29:37.277Z,4.25
2019-01-23T18:35:32.258Z,5.06
2019-01-23T18:41:27.290Z,9.14
2019-01-23T18:47:22.289Z,8.2
2019-01-23T18:53:17.259Z,8.73
2019-01-23T18:59:12.260Z,24.21
2019-01-23T19:05:07.296Z,5.37
2019-01-23T19:11:02.276Z,3.36
2019-01-23T19:16:57.285Z,5.46
2019-01-23T19:22:52.262Z,14.7
2019-01-23T19:28:47.236Z,6.48
2019-01-23T19:34:42.285Z,6.81
2019-01-23T19:40:37.301Z,3.62
2019-01-23T19:46:32.269Z,8.63
2019-01-23T19:52:27.264Z,3.5
2019-01-23T19:58:22.277Z,3.2
2019-01-23T20:04:17.282Z,22.27
2019-01-23T20:10:14.290Z,3.32
2019-01-23T20:16:07.266Z,4.11
2019-01-23T20:22:02.281Z,8.47
2019-01-23T20:27:57.277Z,8
2019-01-23T20:33:52.287Z,13.69
2019-01-23T20:39:47.287Z,13.01
2019-01-23T20:45:42.307Z,9.48
2019-01-23T20:51:37.299Z,8.6
2019-01-23T21:15:17.319Z,8.55
2019-01-23T21:15:17.405Z,5.4
2019-01-23T21:15:17.415Z,5.4
2019-01-23T21:15:17.448Z,5.4
2019-01-23T21:21:12.273Z,6.36
2019-01-23T21:27:07.326Z,4.93
2019-01-23T21:33:02.319Z,3.64
2019-01-23T21:38:57.305Z,3.9
2019-01-23T21:44:52.293Z,4.77
2019-01-23T21:50:47.336Z,1.01
2019-01-23T21:56:42.287Z,2.08
2019-01-23T22:02:37.305Z,1.59
2019-01-23T22:08:32.306Z,1.5
2019-01-23T22:14:27.306Z,3.3
2019-01-23T22:20:22.282Z,3.13
2019-01-23T22:26:17.288Z,2.91
2019-01-23T22:32:12.321Z,2.49
2019-01-23T22:38:07.308Z,3.54
2019-01-23T22:44:02.289Z,3.21
2019-01-23T22:49:57.347Z,2.25
2019-01-23T22:55:52.308Z,1.34
2019-01-23T23:01:47.321Z,0.98
2019-01-23T23:07:42.309Z,1.05
2019-01-23T23:13:37.305Z,0.93
2019-01-23T23:19:32.341Z,0.98
2019-01-23T23:25:27.303Z,0.97
2019-01-23T23:31:22.336Z,1.65
2019-01-23T23:37:17.310Z,1.02
2019-01-23T23:43:12.353Z,1.09
2019-01-23T23:49:07.322Z,1.08
